createdAt,value
2023-03-06T00:02:27.092Z,265.92
2023-03-06T00:07:28.992Z,274.85
2023-03-06T00:12:30.863Z,275.38
2023-03-06T00:17:32.727Z,269.40
2023-03-06T00:22:34.587Z,266.02
2023-03-06T00:27:36.375Z,256.60
2023-03-06T00:32:38.354Z,264.42
2023-03-06T00:37:40.808Z,277.73
2023-03-06T00:42:42.810Z,259.53
2023-03-06T00:47:44.776Z,275.00
2023-03-06T00:52:46.640Z,284.93
2023-03-06T00:57:48.875Z,264.40
2023-03-06T01:02:51.231Z,267.55
2023-03-06T01:07:53.052Z,262.35
2023-03-06T01:12:55.404Z,286.53
2023-03-06T01:17:57.289Z,266.33
2023-03-06T01:22:59.262Z,257.70
2023-03-06T01:28:01.187Z,256.42
2023-03-06T01:33:04.003Z,248.43
2023-03-06T01:38:06.143Z,250.75
2023-03-06T01:43:28.620Z,249.95
2023-03-06T01:48:30.950Z,254.70
2023-03-06T01:53:33.193Z,238.80
2023-03-06T01:58:35.341Z,238.25
2023-03-06T02:03:39.037Z,247.80
2023-03-06T02:08:41.519Z,251.80
2023-03-06T02:13:44.707Z,249.73
2023-03-06T02:18:48.852Z,242.27
2023-03-06T02:24:04.922Z,233.88
2023-03-06T02:29:08.408Z,238.48
2023-03-06T02:34:16.243Z,234.10
2023-03-06T02:39:21.706Z,243.65
2023-03-06T02:44:24.835Z,236.23
2023-03-06T02:49:26.814Z,234.05
2023-03-06T02:54:28.732Z,225.50
2023-03-06T02:59:30.760Z,225.00
2023-03-06T03:04:33.205Z,222.32
2023-03-06T03:09:37.271Z,231.10
2023-03-06T03:14:39.459Z,231.98
2023-03-06T03:19:41.423Z,226.93
2023-03-06T03:24:43.736Z,219.82
2023-03-06T03:29:45.646Z,241.97
2023-03-06T03:34:47.575Z,242.85
2023-03-06T03:39:49.584Z,227.85
2023-03-06T03:44:51.910Z,266.75
2023-03-06T03:49:56.322Z,247.48
2023-03-06T03:54:59.446Z,299.50
2023-03-06T04:00:02.626Z,277.17
2023-03-06T04:05:22.709Z,249.43
2023-03-06T04:10:24.752Z,244.67
2023-03-06T04:15:26.888Z,246.00
2023-03-06T04:20:29.195Z,241.43
2023-03-06T04:25:34.819Z,239.82
2023-03-06T04:30:38.539Z,242.93
2023-03-06T04:35:40.638Z,250.50
2023-03-06T04:40:49.674Z,240.98
2023-03-06T04:45:51.966Z,244.23
2023-03-06T04:50:53.827Z,235.47
2023-03-06T04:55:55.729Z,249.43
2023-03-06T05:00:57.671Z,242.33
2023-03-06T05:06:00.677Z,243.03
2023-03-06T05:11:03.697Z,247.43
2023-03-06T05:16:06.593Z,245.50
2023-03-06T05:21:08.642Z,249.10
2023-03-06T05:26:13.582Z,242.07
2023-03-06T05:31:15.564Z,240.98
2023-03-06T05:36:17.458Z,248.30
2023-03-06T05:41:19.433Z,236.65
2023-03-06T05:46:21.452Z,241.57
2023-03-06T05:51:23.952Z,233.35
2023-03-06T05:56:25.956Z,229.00
2023-03-06T06:01:28.550Z,232.32
2023-03-06T06:06:30.451Z,244.30
2023-03-06T06:11:32.435Z,232.57
2023-03-06T06:16:34.337Z,233.27
2023-03-06T06:21:36.245Z,236.98
2023-03-06T06:26:38.096Z,239.33
2023-03-06T06:31:40.906Z,250.60
2023-03-06T06:36:43.078Z,268.63
2023-03-06T06:42:02.284Z,261.83
2023-03-06T06:47:22.320Z,259.20
2023-03-06T06:52:25.760Z,246.47
2023-03-06T06:57:27.758Z,243.38
2023-03-06T07:02:29.729Z,243.13
2023-03-06T07:07:34.501Z,241.57
2023-03-06T07:12:37.236Z,246.37
2023-03-06T07:17:39.135Z,241.00
2023-03-06T07:22:50.254Z,235.90
2023-03-06T07:27:54.520Z,244.17
2023-03-06T07:32:58.372Z,249.53
2023-03-06T07:38:00.720Z,257.27
2023-03-06T07:43:18.390Z,264.43
2023-03-06T07:48:28.105Z,243.20
2023-03-06T07:53:30.321Z,252.02
2023-03-06T07:58:32.153Z,240.13
2023-03-06T08:03:34.471Z,255.90
2023-03-06T08:08:39.417Z,263.13
2023-03-06T08:13:41.723Z,285.30
2023-03-06T08:18:45.829Z,248.13
2023-03-06T08:23:48.617Z,268.85
2023-03-06T08:28:55.309Z,267.67
2023-03-06T08:33:59.483Z,282.20
2023-03-06T08:39:01.953Z,280.50
2023-03-06T08:44:04.563Z,268.30
2023-03-06T08:49:06.484Z,289.85
2023-03-06T08:54:08.542Z,275.80
2023-03-06T08:59:11.980Z,295.65
2023-03-06T09:04:14.008Z,281.23
2023-03-06T09:09:16.049Z,305.55
2023-03-06T09:14:17.913Z,326.10
2023-03-06T09:19:19.726Z,306.00
2023-03-06T09:24:21.737Z,326.75
2023-03-06T09:29:23.619Z,377.63
2023-03-06T09:34:27.655Z,360.25
2023-03-06T09:39:29.522Z,350.60
2023-03-06T09:44:34.501Z,370.33
2023-03-06T09:50:20.920Z,404.10
2023-03-06T09:55:28.966Z,404.33
2023-03-06T10:00:37.089Z,365.90
2023-03-06T10:05:43.049Z,379.83
2023-03-06T10:10:53.933Z,402.40
2023-03-06T10:16:18.947Z,414.73
2023-03-06T10:21:21.524Z,430.05
2023-03-06T10:26:30.291Z,445.20
2023-03-06T10:31:34.415Z,448.42
2023-03-06T10:36:36.283Z,452.00
2023-03-06T10:41:38.799Z,449.73
2023-03-06T10:46:47.068Z,461.33
2023-03-06T10:52:06.714Z,442.73
2023-03-06T10:57:26.289Z,447.08
2023-03-06T11:02:31.598Z,424.53
2023-03-06T11:07:35.482Z,457.63
2023-03-06T11:12:42.299Z,457.05
2023-03-06T11:17:54.600Z,462.83
2023-03-06T11:22:56.433Z,458.35
2023-03-06T11:28:13.232Z,458.77
2023-03-06T11:33:46.441Z,459.38
2023-03-06T11:38:53.281Z,465.05
2023-03-06T11:44:03.384Z,458.98
2023-03-06T11:49:09.767Z,482.15
2023-03-06T11:54:14.125Z,471.13
2023-03-06T11:59:28.128Z,472.67
2023-03-06T12:04:39.363Z,467.30
2023-03-06T12:09:56.397Z,468.25
2023-03-06T12:15:18.034Z,476.50
2023-03-06T12:20:22.789Z,483.13
2023-03-06T12:25:27.807Z,500.38
2023-03-06T12:30:42.934Z,519.13
2023-03-06T12:36:14.249Z,518.15
2023-03-06T12:41:39.993Z,514.30
2023-03-06T12:46:47.095Z,392.33
2023-03-06T12:51:49.282Z,508.77
2023-03-06T12:56:52.664Z,506.40
2023-03-06T13:02:02.889Z,519.10
2023-03-06T13:07:27.988Z,502.67
2023-03-06T13:12:45.057Z,500.20
2023-03-06T13:17:47.026Z,512.00
2023-03-06T13:22:48.867Z,508.90
2023-03-06T13:27:53.737Z,503.40
2023-03-06T13:32:56.260Z,511.17
2023-03-06T13:37:59.605Z,500.63
2023-03-06T13:43:18.865Z,519.95
2023-03-06T13:48:47.649Z,508.02
2023-03-06T13:53:56.699Z,521.92
2023-03-06T13:59:13.807Z,518.43
2023-03-06T14:04:33.434Z,492.58
2023-03-06T14:09:41.354Z,512.63
2023-03-06T14:14:48.117Z,507.35
2023-03-06T14:19:51.212Z,503.17
2023-03-06T14:25:16.269Z,501.70
2023-03-06T14:30:21.507Z,496.20
2023-03-06T14:35:30.149Z,482.75
2023-03-06T14:40:35.841Z,464.00
2023-03-06T14:45:38.818Z,470.15
2023-03-06T14:50:41.974Z,461.98
2023-03-06T14:56:06.390Z,464.75
2023-03-06T15:01:11.475Z,446.95
2023-03-06T15:06:25.297Z,459.33
2023-03-06T15:11:27.380Z,452.13
2023-03-06T15:16:30.773Z,467.20
2023-03-06T15:21:37.624Z,451.42
2023-03-06T15:26:40.669Z,469.20
2023-03-06T15:31:45.356Z,452.48
2023-03-06T15:36:55.150Z,447.63
2023-03-06T15:42:24.910Z,435.05
2023-03-06T15:47:26.883Z,440.42
2023-03-06T15:52:28.766Z,398.23
2023-03-06T15:57:30.821Z,387.33
2023-03-06T16:02:33.466Z,400.67
2023-03-06T16:07:35.320Z,374.27
2023-03-06T16:12:37.181Z,371.27
2023-03-06T16:17:39.131Z,368.25
2023-03-06T16:22:41.030Z,373.83
2023-03-06T16:27:49.713Z,370.25
2023-03-06T16:32:51.907Z,379.60
2023-03-06T16:37:53.989Z,379.25
2023-03-06T16:42:56.440Z,376.20
2023-03-06T16:47:59.461Z,351.52
2023-03-06T16:53:02.531Z,352.02
2023-03-06T16:58:05.129Z,338.33
2023-03-06T17:03:07.473Z,345.10
2023-03-06T17:08:09.705Z,346.35
2023-03-06T17:13:12.098Z,346.30
2023-03-06T17:18:14.041Z,331.65
2023-03-06T17:23:15.938Z,361.90
2023-03-06T17:28:18.182Z,347.02
2023-03-06T17:33:20.048Z,338.95
2023-03-06T17:38:21.889Z,340.45
2023-03-06T17:43:23.730Z,328.92
2023-03-06T17:48:25.909Z,344.90
2023-03-06T17:53:28.066Z,309.27
2023-03-06T17:58:29.989Z,329.95
2023-03-06T18:03:31.822Z,324.38
2023-03-06T18:08:33.777Z,307.08
2023-03-06T18:13:38.694Z,322.17
2023-03-06T18:18:41.093Z,311.23
2023-03-06T18:23:43.339Z,282.97
2023-03-06T18:28:47.406Z,355.70
2023-03-06T18:33:49.549Z,305.87
2023-03-06T18:38:51.931Z,308.17
2023-03-06T18:43:59.292Z,310.17
2023-03-06T18:49:02.048Z,301.60
2023-03-06T18:54:05.296Z,293.40
2023-03-06T18:59:07.728Z,304.48
2023-03-06T19:04:09.995Z,314.07
2023-03-06T19:09:11.955Z,279.10
2023-03-06T19:14:14.972Z,283.35
2023-03-06T19:19:16.876Z,287.70
2023-03-06T19:24:18.780Z,276.33
2023-03-06T19:29:20.675Z,276.13
2023-03-06T19:34:22.544Z,278.05
2023-03-06T19:39:24.823Z,276.00
2023-03-06T19:44:26.837Z,279.92
2023-03-06T19:49:28.809Z,273.25
2023-03-06T19:54:32.471Z,263.95
2023-03-06T19:59:34.691Z,272.70
2023-03-06T20:04:37.075Z,271.52
2023-03-06T20:09:39.024Z,282.13
2023-03-06T20:14:41.449Z,273.47
2023-03-06T20:19:44.341Z,274.75
2023-03-06T20:24:46.657Z,284.50
2023-03-06T20:29:48.554Z,272.65
2023-03-06T20:34:50.573Z,275.25
2023-03-06T20:39:53.691Z,291.27
2023-03-06T20:44:55.771Z,277.73
2023-03-06T20:49:57.742Z,276.93
2023-03-06T20:54:59.605Z,273.45
2023-03-06T21:00:01.495Z,266.55
2023-03-06T21:05:03.889Z,284.63
2023-03-06T21:10:06.526Z,268.58
2023-03-06T21:15:08.618Z,279.17
2023-03-06T21:20:11.154Z,278.17
2023-03-06T21:25:13.095Z,274.47
2023-03-06T21:30:15.017Z,279.80
2023-03-06T21:35:17.486Z,281.17
2023-03-06T21:40:19.486Z,282.48
2023-03-06T21:45:21.759Z,271.80
2023-03-06T21:50:24.127Z,286.07
2023-03-06T21:55:28.348Z,289.73
2023-03-06T22:00:30.380Z,281.80
2023-03-06T22:05:32.299Z,286.90
2023-03-06T22:10:34.201Z,283.27
2023-03-06T22:15:36.657Z,296.33
2023-03-06T22:20:39.752Z,300.93
2023-03-06T22:25:44.115Z,315.97
2023-03-06T22:30:46.437Z,277.60
2023-03-06T22:35:48.379Z,284.33
2023-03-06T22:40:50.248Z,286.70
2023-03-06T22:45:52.901Z,288.20
2023-03-06T22:50:54.778Z,289.73
2023-03-06T22:56:01.149Z,284.50
2023-03-06T23:01:08.022Z,292.13
2023-03-06T23:06:19.093Z,291.08
2023-03-06T23:11:22.342Z,291.27
2023-03-06T23:16:42.713Z,299.97
2023-03-06T23:22:05.730Z,290.00
2023-03-06T23:27:26.328Z,287.03
2023-03-06T23:32:28.423Z,290.10
2023-03-06T23:37:30.586Z,292.30
2023-03-06T23:42:32.737Z,286.48
2023-03-06T23:47:34.768Z,285.37
2023-03-06T23:52:36.666Z,294.57
2023-03-06T23:57:38.524Z,291.43
